sensor_id;sensor_type;location;lat;lon;timestamp;pressure;altitude;pressure_sealevel;temperature;humidity
45323;BME280;31382;50.200;8.674;2023-04-04T00:00:39;101568.22;;;3.61;48.78
45323;BME280;31382;50.200;8.674;2023-04-04T00:05:41;101574.53;;;3.60;49.00
45323;BME280;31382;50.200;8.674;2023-04-04T00:10:42;101561.81;;;3.50;49.47
45323;BME280;31382;50.200;8.674;2023-04-04T00:15:44;101559.47;;;3.46;49.22
45323;BME280;31382;50.200;8.674;2023-04-04T00:20:45;101557.31;;;3.38;49.64
45323;BME280;31382;50.200;8.674;2023-04-04T00:25:50;101552.66;;;3.27;50.13
45323;BME280;31382;50.200;8.674;2023-04-04T00:30:52;101554.47;;;3.27;49.85
45323;BME280;31382;50.200;8.674;2023-04-04T00:35:54;101546.06;;;3.20;50.51
45323;BME280;31382;50.200;8.674;2023-04-04T00:40:56;101546.25;;;3.17;50.50
45323;BME280;31382;50.200;8.674;2023-04-04T00:45:57;101542.47;;;3.07;50.53
45323;BME280;31382;50.200;8.674;2023-04-04T00:50:59;101549.78;;;3.03;50.60
45323;BME280;31382;50.200;8.674;2023-04-04T00:56:00;101550.19;;;2.97;50.40
45323;BME280;31382;50.200;8.674;2023-04-04T01:01:03;101541.38;;;2.96;50.72
45323;BME280;31382;50.200;8.674;2023-04-04T01:06:06;101542.31;;;2.95;50.51
45323;BME280;31382;50.200;8.674;2023-04-04T01:11:08;101531.69;;;2.95;50.50
45323;BME280;31382;50.200;8.674;2023-04-04T01:16:10;101532.81;;;2.91;50.34
45323;BME280;31382;50.200;8.674;2023-04-04T01:21:13;101532.06;;;2.89;50.80
45323;BME280;31382;50.200;8.674;2023-04-04T01:26:20;101524.28;;;2.86;51.30
45323;BME280;31382;50.200;8.674;2023-04-04T01:31:27;101531.72;;;2.81;50.97
45323;BME280;31382;50.200;8.674;2023-04-04T01:36:39;101531.63;;;2.83;51.71
45323;BME280;31382;50.200;8.674;2023-04-04T01:41:46;101529.13;;;2.80;51.08
45323;BME280;31382;50.200;8.674;2023-04-04T01:46:52;101529.22;;;2.78;51.29
45323;BME280;31382;50.200;8.674;2023-04-04T01:51:55;101524.41;;;2.70;51.62
45323;BME280;31382;50.200;8.674;2023-04-04T01:56:57;101530.69;;;2.69;51.31
45323;BME280;31382;50.200;8.674;2023-04-04T02:01:58;101529.81;;;2.69;51.91
45323;BME280;31382;50.200;8.674;2023-04-04T02:06:59;101530.84;;;2.66;51.77
45323;BME280;31382;50.200;8.674;2023-04-04T02:12:01;101531.31;;;2.58;51.97
45323;BME280;31382;50.200;8.674;2023-04-04T02:17:02;101533.13;;;2.58;51.99
45323;BME280;31382;50.200;8.674;2023-04-04T02:22:04;101525.38;;;2.55;51.80
45323;BME280;31382;50.200;8.674;2023-04-04T02:27:06;101521.97;;;2.53;52.44
45323;BME280;31382;50.200;8.674;2023-04-04T02:32:07;101522.91;;;2.52;52.22
45323;BME280;31382;50.200;8.674;2023-04-04T02:37:08;101518.34;;;2.54;51.88
45323;BME280;31382;50.200;8.674;2023-04-04T02:42:10;101513.13;;;2.52;51.94
45323;BME280;31382;50.200;8.674;2023-04-04T02:47:11;101515.91;;;2.51;52.34
45323;BME280;31382;50.200;8.674;2023-04-04T02:52:13;101505.38;;;2.49;52.42
45323;BME280;31382;50.200;8.674;2023-04-04T02:57:14;101503.38;;;2.53;52.05
45323;BME280;31382;50.200;8.674;2023-04-04T03:02:16;101493.53;;;2.55;52.05
45323;BME280;31382;50.200;8.674;2023-04-04T03:07:17;101490.22;;;2.51;51.91
45323;BME280;31382;50.200;8.674;2023-04-04T03:12:19;101488.88;;;2.44;52.64
45323;BME280;31382;50.200;8.674;2023-04-04T03:17:22;101484.63;;;2.42;52.23
45323;BME280;31382;50.200;8.674;2023-04-04T03:22:23;101486.50;;;2.40;52.81
45323;BME280;31382;50.200;8.674;2023-04-04T03:27:24;101481.47;;;2.35;52.64
45323;BME280;31382;50.200;8.674;2023-04-04T03:32:26;101478.94;;;2.33;52.94
45323;BME280;31382;50.200;8.674;2023-04-04T03:37:29;101472.00;;;2.31;52.92
45323;BME280;31382;50.200;8.674;2023-04-04T03:42:33;101479.50;;;2.24;53.43
45323;BME280;31382;50.200;8.674;2023-04-04T03:47:35;101472.47;;;2.23;53.08
45323;BME280;31382;50.200;8.674;2023-04-04T03:52:37;101462.81;;;2.22;53.42
45323;BME280;31382;50.200;8.674;2023-04-04T03:57:41;101466.41;;;2.21;53.13
45323;BME280;31382;50.200;8.674;2023-04-04T04:02:43;101471.06;;;2.17;53.25
45323;BME280;31382;50.200;8.674;2023-04-04T04:07:45;101459.22;;;2.23;53.01
45323;BME280;31382;50.200;8.674;2023-04-04T04:12:46;101454.03;;;2.22;53.25
45323;BME280;31382;50.200;8.674;2023-04-04T04:17:48;101453.34;;;2.18;53.28
45323;BME280;31382;50.200;8.674;2023-04-04T04:22:49;101458.06;;;2.13;53.63
45323;BME280;31382;50.200;8.674;2023-04-04T04:27:54;101456.28;;;2.13;53.51
45323;BME280;31382;50.200;8.674;2023-04-04T04:32:57;101467.84;;;2.12;53.13
45323;BME280;31382;50.200;8.674;2023-04-04T04:37:58;101458.44;;;2.07;53.20
45323;BME280;31382;50.200;8.674;2023-04-04T04:42:59;101458.81;;;2.01;53.42
45323;BME280;31382;50.200;8.674;2023-04-04T04:48:01;101465.34;;;1.95;53.26
45323;BME280;31382;50.200;8.674;2023-04-04T04:53:02;101468.09;;;1.93;53.60
45323;BME280;31382;50.200;8.674;2023-04-04T04:58:04;101468.75;;;1.97;54.19
45323;BME280;31382;50.200;8.674;2023-04-04T05:03:06;101468.97;;;2.08;53.43
45323;BME280;31382;50.200;8.674;2023-04-04T05:08:07;101471.44;;;2.11;53.37
45323;BME280;31382;50.200;8.674;2023-04-04T05:13:09;101476.56;;;2.14;53.36
45323;BME280;31382;50.200;8.674;2023-04-04T05:18:10;101466.63;;;2.18;54.03
45323;BME280;31382;50.200;8.674;2023-04-04T05:23:12;101469.47;;;2.29;53.17
45323;BME280;31382;50.200;8.674;2023-04-04T05:28:13;101468.22;;;2.35;53.01
45323;BME280;31382;50.200;8.674;2023-04-04T05:33:15;101463.38;;;2.42;53.22
45323;BME280;31382;50.200;8.674;2023-04-04T05:38:16;101464.91;;;2.46;53.80
45323;BME280;31382;50.200;8.674;2023-04-04T05:43:18;101472.84;;;2.60;53.25
45323;BME280;31382;50.200;8.674;2023-04-04T05:48:19;101467.13;;;2.66;53.66
45323;BME280;31382;50.200;8.674;2023-04-04T05:53:21;101467.31;;;2.77;52.87
45323;BME280;31382;50.200;8.674;2023-04-04T05:58:22;101470.16;;;2.89;53.16
45323;BME280;31382;50.200;8.674;2023-04-04T06:03:24;101471.69;;;3.06;52.99
45323;BME280;31382;50.200;8.674;2023-04-04T06:08:25;101470.94;;;3.18;52.86
45323;BME280;31382;50.200;8.674;2023-04-04T06:13:27;101478.28;;;3.27;52.95
45323;BME280;31382;50.200;8.674;2023-04-04T06:18:28;101474.03;;;3.37;53.54
45323;BME280;31382;50.200;8.674;2023-04-04T06:23:30;101478.34;;;3.53;53.49
45323;BME280;31382;50.200;8.674;2023-04-04T06:28:31;101478.16;;;3.69;53.56
45323;BME280;31382;50.200;8.674;2023-04-04T06:33:33;101476.91;;;3.74;53.57
45323;BME280;31382;50.200;8.674;2023-04-04T06:38:34;101475.88;;;3.90;53.05
45323;BME280;31382;50.200;8.674;2023-04-04T06:43:36;101485.66;;;4.02;53.17
45323;BME280;31382;50.200;8.674;2023-04-04T06:48:38;101478.97;;;4.22;52.70
45323;BME280;31382;50.200;8.674;2023-04-04T06:53:39;101489.09;;;4.43;52.44
45323;BME280;31382;50.200;8.674;2023-04-04T06:58:40;101491.72;;;4.55;52.43
45323;BME280;31382;50.200;8.674;2023-04-04T07:03:42;101486.69;;;4.76;52.20
45323;BME280;31382;50.200;8.674;2023-04-04T07:08:44;101487.44;;;5.03;51.78
45323;BME280;31382;50.200;8.674;2023-04-04T07:13:46;101486.09;;;5.21;51.41
45323;BME280;31382;50.200;8.674;2023-04-04T07:18:47;101498.81;;;5.42;50.79
45323;BME280;31382;50.200;8.674;2023-04-04T07:23:49;101496.06;;;5.54;50.77
45323;BME280;31382;50.200;8.674;2023-04-04T07:28:51;101497.94;;;5.65;50.67
45323;BME280;31382;50.200;8.674;2023-04-04T07:33:53;101491.91;;;5.74;49.98
45323;BME280;31382;50.200;8.674;2023-04-04T07:38:54;101492.91;;;5.85;50.04
45323;BME280;31382;50.200;8.674;2023-04-04T07:43:55;101492.19;;;5.94;49.77
45323;BME280;31382;50.200;8.674;2023-04-04T07:48:57;101494.19;;;6.03;48.52
45323;BME280;31382;50.200;8.674;2023-04-04T07:53:58;101484.28;;;6.17;48.80
45323;BME280;31382;50.200;8.674;2023-04-04T07:59:00;101485.00;;;6.41;47.95
45323;BME280;31382;50.200;8.674;2023-04-04T08:04:01;101477.63;;;6.45;47.55
45323;BME280;31382;50.200;8.674;2023-04-04T08:09:03;101477.38;;;6.48;47.62
45323;BME280;31382;50.200;8.674;2023-04-04T08:14:05;101474.69;;;6.70;46.82
45323;BME280;31382;50.200;8.674;2023-04-04T08:19:06;101471.91;;;6.83;46.16
45323;BME280;31382;50.200;8.674;2023-04-04T08:24:08;101472.09;;;7.03;46.18
45323;BME280;31382;50.200;8.674;2023-04-04T08:29:10;101461.84;;;7.19;46.02
45323;BME280;31382;50.200;8.674;2023-04-04T08:34:11;101468.13;;;7.29;44.97
45323;BME280;31382;50.200;8.674;2023-04-04T08:39:13;101464.97;;;7.24;44.98
45323;BME280;31382;50.200;8.674;2023-04-04T08:44:16;101466.66;;;7.37;44.07
45323;BME280;31382;50.200;8.674;2023-04-04T08:49:22;101463.03;;;7.26;44.36
45323;BME280;31382;50.200;8.674;2023-04-04T08:54:24;101458.53;;;7.27;43.90
45323;BME280;31382;50.200;8.674;2023-04-04T08:59:26;101454.97;;;7.38;42.92
45323;BME280;31382;50.200;8.674;2023-04-04T09:04:28;101452.72;;;7.75;42.99
45323;BME280;31382;50.200;8.674;2023-04-04T09:09:32;101456.13;;;7.98;42.15
45323;BME280;31382;50.200;8.674;2023-04-04T09:14:35;101447.06;;;8.20;41.92
45323;BME280;31382;50.200;8.674;2023-04-04T09:19:38;101445.28;;;8.30;41.22
45323;BME280;31382;50.200;8.674;2023-04-04T09:24:42;101448.25;;;8.37;40.86
45323;BME280;31382;50.200;8.674;2023-04-04T09:29:43;101443.13;;;8.45;40.74
45323;BME280;31382;50.200;8.674;2023-04-04T09:34:44;101443.59;;;8.60;40.24
45323;BME280;31382;50.200;8.674;2023-04-04T09:39:47;101437.47;;;8.89;39.70
45323;BME280;31382;50.200;8.674;2023-04-04T09:44:53;101430.00;;;9.12;38.95
45323;BME280;31382;50.200;8.674;2023-04-04T09:49:58;101423.81;;;9.11;38.80
45323;BME280;31382;50.200;8.674;2023-04-04T09:55:03;101432.00;;;9.29;38.20
45323;BME280;31382;50.200;8.674;2023-04-04T10:00:06;101438.66;;;9.45;38.19
45323;BME280;31382;50.200;8.674;2023-04-04T10:05:10;101434.13;;;9.55;37.83
45323;BME280;31382;50.200;8.674;2023-04-04T10:10:12;101432.81;;;9.79;37.62
45323;BME280;31382;50.200;8.674;2023-04-04T10:15:14;101431.25;;;9.86;37.55
45323;BME280;31382;50.200;8.674;2023-04-04T10:20:17;101423.19;;;9.86;37.12
45323;BME280;31382;50.200;8.674;2023-04-04T10:25:19;101420.03;;;10.00;36.76
45323;BME280;31382;50.200;8.674;2023-04-04T10:30:20;101419.53;;;10.24;36.05
45323;BME280;31382;50.200;8.674;2023-04-04T10:35:23;101421.34;;;10.43;35.86
45323;BME280;31382;50.200;8.674;2023-04-04T10:40:29;101416.03;;;10.79;35.28
45323;BME280;31382;50.200;8.674;2023-04-04T10:45:35;101401.47;;;11.36;34.47
45323;BME280;31382;50.200;8.674;2023-04-04T10:50:39;101414.50;;;11.66;34.12
45323;BME280;31382;50.200;8.674;2023-04-04T10:55:41;101401.91;;;12.19;33.24
45323;BME280;31382;50.200;8.674;2023-04-04T11:00:51;101392.00;;;12.28;32.77
45323;BME280;31382;50.200;8.674;2023-04-04T11:05:55;101391.97;;;12.62;33.00
45323;BME280;31382;50.200;8.674;2023-04-04T11:11:01;101376.94;;;12.60;32.44
45323;BME280;31382;50.200;8.674;2023-04-04T11:16:16;101358.78;;;12.78;32.71
45323;BME280;31382;50.200;8.674;2023-04-04T11:21:21;101360.38;;;13.30;32.31
45323;BME280;31382;50.200;8.674;2023-04-04T11:31:38;101351.75;;;13.10;31.78
45323;BME280;31382;50.200;8.674;2023-04-04T11:47:04;101336.22;;;13.20;31.38
45323;BME280;31382;50.200;8.674;2023-04-04T11:52:14;101334.34;;;13.21;31.23
45323;BME280;31382;50.200;8.674;2023-04-04T11:57:17;101317.31;;;13.61;30.49
45323;BME280;31382;50.200;8.674;2023-04-04T12:02:22;101307.16;;;13.72;30.40
45323;BME280;31382;50.200;8.674;2023-04-04T12:07:27;101317.94;;;13.80;30.32
45323;BME280;31382;50.200;8.674;2023-04-04T12:12:29;101312.22;;;13.75;30.06
45323;BME280;31382;50.200;8.674;2023-04-04T12:17:31;101315.09;;;13.73;30.43
45323;BME280;31382;50.200;8.674;2023-04-04T12:22:35;101300.69;;;14.28;30.26
45323;BME280;31382;50.200;8.674;2023-04-04T12:27:36;101306.16;;;14.43;29.90
45323;BME280;31382;50.200;8.674;2023-04-04T12:32:38;101296.31;;;13.80;30.47
45323;BME280;31382;50.200;8.674;2023-04-04T12:37:55;101289.31;;;14.33;29.86
45323;BME280;31382;50.200;8.674;2023-04-04T12:42:58;101281.81;;;14.75;28.70
45323;BME280;31382;50.200;8.674;2023-04-04T12:48:00;101275.84;;;15.02;28.78
45323;BME280;31382;50.200;8.674;2023-04-04T12:53:04;101272.09;;;15.26;28.35
45323;BME280;31382;50.200;8.674;2023-04-04T12:58:25;101263.22;;;15.47;28.06
45323;BME280;31382;50.200;8.674;2023-04-04T13:03:27;101269.78;;;15.53;28.09
45323;BME280;31382;50.200;8.674;2023-04-04T13:08:29;101266.88;;;15.99;27.98
45323;BME280;31382;50.200;8.674;2023-04-04T13:14:14;101262.38;;;16.06;27.78
45323;BME280;31382;50.200;8.674;2023-04-04T13:18:56;101252.50;;;15.99;27.81
45323;BME280;31382;50.200;8.674;2023-04-04T13:23:57;101241.56;;;15.92;27.42
45323;BME280;31382;50.200;8.674;2023-04-04T13:28:59;101240.47;;;14.81;27.98
45323;BME280;31382;50.200;8.674;2023-04-04T13:34:00;101234.84;;;15.58;27.66
45323;BME280;31382;50.200;8.674;2023-04-04T13:39:01;101228.41;;;15.74;27.76
45323;BME280;31382;50.200;8.674;2023-04-04T13:44:03;101215.00;;;15.88;27.61
45323;BME280;31382;50.200;8.674;2023-04-04T13:49:04;101217.34;;;15.91;27.47
45323;BME280;31382;50.200;8.674;2023-04-04T13:54:06;101216.34;;;16.13;27.12
45323;BME280;31382;50.200;8.674;2023-04-04T13:59:07;101198.09;;;16.22;27.50
45323;BME280;31382;50.200;8.674;2023-04-04T14:04:09;101190.97;;;16.21;27.25
45323;BME280;31382;50.200;8.674;2023-04-04T14:09:24;101191.44;;;16.24;27.29
45323;BME280;31382;50.200;8.674;2023-04-04T14:14:25;101181.88;;;16.72;26.57
45323;BME280;31382;50.200;8.674;2023-04-04T14:19:27;101181.97;;;17.07;26.61
45323;BME280;31382;50.200;8.674;2023-04-04T14:24:28;101176.09;;;17.38;26.64
45323;BME280;31382;50.200;8.674;2023-04-04T14:29:29;101170.88;;;17.43;26.95
45323;BME280;31382;50.200;8.674;2023-04-04T14:34:31;101167.16;;;17.92;26.66
45323;BME280;31382;50.200;8.674;2023-04-04T14:39:32;101159.91;;;18.26;26.67
45323;BME280;31382;50.200;8.674;2023-04-04T14:44:34;101164.69;;;19.31;25.68
45323;BME280;31382;50.200;8.674;2023-04-04T14:49:35;101148.59;;;20.76;24.12
45323;BME280;31382;50.200;8.674;2023-04-04T14:54:37;101139.69;;;21.06;23.27
45323;BME280;31382;50.200;8.674;2023-04-04T14:59:38;101142.50;;;20.99;23.32
45323;BME280;31382;50.200;8.674;2023-04-04T15:04:39;101140.09;;;20.66;22.94
45323;BME280;31382;50.200;8.674;2023-04-04T15:09:42;101144.53;;;19.45;23.58
45323;BME280;31382;50.200;8.674;2023-04-04T15:14:44;101141.91;;;18.52;24.39
45323;BME280;31382;50.200;8.674;2023-04-04T15:19:46;101132.91;;;17.63;24.90
45323;BME280;31382;50.200;8.674;2023-04-04T15:24:47;101131.16;;;17.42;25.25
45323;BME280;31382;50.200;8.674;2023-04-04T15:29:49;101127.84;;;18.01;24.69
45323;BME280;31382;50.200;8.674;2023-04-04T15:34:50;101121.13;;;17.97;24.77
45323;BME280;31382;50.200;8.674;2023-04-04T15:39:52;101126.56;;;17.42;25.41
45323;BME280;31382;50.200;8.674;2023-04-04T15:44:54;101123.13;;;16.64;25.85
45323;BME280;31382;50.200;8.674;2023-04-04T15:49:56;101124.66;;;16.45;26.00
45323;BME280;31382;50.200;8.674;2023-04-04T15:54:57;101114.38;;;15.97;26.32
45323;BME280;31382;50.200;8.674;2023-04-04T15:59:59;101107.72;;;15.78;26.64
45323;BME280;31382;50.200;8.674;2023-04-04T16:05:00;101110.84;;;15.45;26.72
45323;BME280;31382;50.200;8.674;2023-04-04T16:10:02;101100.75;;;15.39;26.78
45323;BME280;31382;50.200;8.674;2023-04-04T16:15:05;101103.22;;;15.19;27.15
45323;BME280;31382;50.200;8.674;2023-04-04T16:20:08;101098.72;;;15.26;27.36
45323;BME280;31382;50.200;8.674;2023-04-04T16:25:09;101097.69;;;14.98;27.67
45323;BME280;31382;50.200;8.674;2023-04-04T16:30:12;101110.03;;;14.85;28.00
45323;BME280;31382;50.200;8.674;2023-04-04T16:35:14;101106.25;;;14.57;28.73
45323;BME280;31382;50.200;8.674;2023-04-04T16:40:16;101102.44;;;14.43;28.71
45323;BME280;31382;50.200;8.674;2023-04-04T16:45:18;101101.78;;;14.41;28.32
45323;BME280;31382;50.200;8.674;2023-04-04T16:50:20;101092.75;;;14.48;28.72
45323;BME280;31382;50.200;8.674;2023-04-04T16:55:21;101098.91;;;14.19;28.64
45323;BME280;31382;50.200;8.674;2023-04-04T17:00:26;101099.00;;;14.11;28.87
45323;BME280;31382;50.200;8.674;2023-04-04T17:05:27;101087.94;;;14.21;28.64
45323;BME280;31382;50.200;8.674;2023-04-04T17:10:29;101093.22;;;13.91;28.89
45323;BME280;31382;50.200;8.674;2023-04-04T17:15:31;101091.91;;;13.56;29.26
45323;BME280;31382;50.200;8.674;2023-04-04T17:20:32;101094.56;;;13.33;29.74
45323;BME280;31382;50.200;8.674;2023-04-04T17:25:35;101096.59;;;13.22;30.35
45323;BME280;31382;50.200;8.674;2023-04-04T17:30:36;101102.94;;;12.98;30.22
45323;BME280;31382;50.200;8.674;2023-04-04T17:35:38;101101.16;;;12.66;30.75
45323;BME280;31382;50.200;8.674;2023-04-04T17:40:40;101100.50;;;12.47;30.87
45323;BME280;31382;50.200;8.674;2023-04-04T17:45:42;101102.53;;;12.21;31.45
45323;BME280;31382;50.200;8.674;2023-04-04T17:50:44;101110.59;;;11.96;31.50
45323;BME280;31382;50.200;8.674;2023-04-04T17:55:45;101104.09;;;11.73;31.84
45323;BME280;31382;50.200;8.674;2023-04-04T18:00:47;101109.75;;;11.45;32.06
45323;BME280;31382;50.200;8.674;2023-04-04T18:05:48;101111.53;;;11.20;32.54
45323;BME280;31382;50.200;8.674;2023-04-04T18:10:50;101116.47;;;10.98;32.92
45323;BME280;31382;50.200;8.674;2023-04-04T18:15:52;101115.50;;;10.81;33.24
45323;BME280;31382;50.200;8.674;2023-04-04T18:20:53;101115.41;;;10.65;33.58
45323;BME280;31382;50.200;8.674;2023-04-04T18:25:55;101119.59;;;10.41;33.86
45323;BME280;31382;50.200;8.674;2023-04-04T18:30:57;101126.78;;;10.23;34.32
45323;BME280;31382;50.200;8.674;2023-04-04T18:35:58;101139.38;;;10.04;34.80
45323;BME280;31382;50.200;8.674;2023-04-04T18:41:00;101138.22;;;9.89;34.95
45323;BME280;31382;50.200;8.674;2023-04-04T18:46:02;101139.22;;;9.70;34.96
45323;BME280;31382;50.200;8.674;2023-04-04T18:51:06;101143.38;;;9.55;35.56
45323;BME280;31382;50.200;8.674;2023-04-04T18:56:08;101148.72;;;9.37;36.10
45323;BME280;31382;50.200;8.674;2023-04-04T19:01:10;101148.66;;;9.19;36.48
45323;BME280;31382;50.200;8.674;2023-04-04T19:06:13;101148.13;;;9.05;37.02
45323;BME280;31382;50.200;8.674;2023-04-04T19:11:14;101151.28;;;8.91;37.21
45323;BME280;31382;50.200;8.674;2023-04-04T19:16:17;101148.47;;;8.83;37.51
45323;BME280;31382;50.200;8.674;2023-04-04T19:21:18;101153.16;;;8.71;37.49
45323;BME280;31382;50.200;8.674;2023-04-04T19:26:20;101144.97;;;8.63;37.93
45323;BME280;31382;50.200;8.674;2023-04-04T19:31:22;101147.53;;;8.54;38.50
45323;BME280;31382;50.200;8.674;2023-04-04T19:36:24;101152.19;;;8.43;38.80
45323;BME280;31382;50.200;8.674;2023-04-04T19:41:33;101147.09;;;8.30;39.13
45323;BME280;31382;50.200;8.674;2023-04-04T19:46:35;101143.00;;;8.16;39.86
45323;BME280;31382;50.200;8.674;2023-04-04T19:51:39;101140.34;;;8.06;39.73
45323;BME280;31382;50.200;8.674;2023-04-04T19:56:42;101140.75;;;7.92;40.38
45323;BME280;31382;50.200;8.674;2023-04-04T20:01:46;101147.19;;;7.80;41.01
45323;BME280;31382;50.200;8.674;2023-04-04T20:07:00;101146.03;;;7.63;40.51
45323;BME280;31382;50.200;8.674;2023-04-04T20:12:02;101153.72;;;7.46;41.39
45323;BME280;31382;50.200;8.674;2023-04-04T20:17:05;101147.78;;;7.33;41.94
45323;BME280;31382;50.200;8.674;2023-04-04T20:22:07;101149.13;;;7.18;42.08
45323;BME280;31382;50.200;8.674;2023-04-04T20:27:08;101151.88;;;7.06;42.81
45323;BME280;31382;50.200;8.674;2023-04-04T20:32:10;101149.56;;;6.71;43.77
45323;BME280;31382;50.200;8.674;2023-04-04T20:37:16;101154.53;;;6.54;43.84
45323;BME280;31382;50.200;8.674;2023-04-04T20:47:44;101155.09;;;6.37;43.96
45323;BME280;31382;50.200;8.674;2023-04-04T20:52:57;101157.34;;;6.32;44.09
45323;BME280;31382;50.200;8.674;2023-04-04T20:58:07;101166.78;;;6.36;45.04
45323;BME280;31382;50.200;8.674;2023-04-04T21:08:35;101170.38;;;6.46;44.14
45323;BME280;31382;50.200;8.674;2023-04-04T21:13:41;101173.56;;;6.40;44.58
45323;BME280;31382;50.200;8.674;2023-04-04T21:18:44;101175.34;;;6.40;45.02
45323;BME280;31382;50.200;8.674;2023-04-04T21:23:53;101170.59;;;6.43;45.71
45323;BME280;31382;50.200;8.674;2023-04-04T21:28:57;101169.69;;;6.33;45.74
45323;BME280;31382;50.200;8.674;2023-04-04T21:34:06;101165.59;;;6.29;45.96
45323;BME280;31382;50.200;8.674;2023-04-04T21:44:22;101170.88;;;6.08;46.47
45323;BME280;31382;50.200;8.674;2023-04-04T21:49:24;101169.19;;;6.07;46.25
45323;BME280;31382;50.200;8.674;2023-04-04T21:54:25;101167.75;;;5.91;47.11
45323;BME280;31382;50.200;8.674;2023-04-04T21:59:27;101171.03;;;5.95;46.87
45323;BME280;31382;50.200;8.674;2023-04-04T22:04:28;101172.59;;;5.86;46.94
45323;BME280;31382;50.200;8.674;2023-04-04T22:09:29;101170.78;;;5.87;47.26
45323;BME280;31382;50.200;8.674;2023-04-04T22:14:31;101173.19;;;5.90;47.59
45323;BME280;31382;50.200;8.674;2023-04-04T22:19:32;101178.69;;;5.77;48.12
45323;BME280;31382;50.200;8.674;2023-04-04T22:24:43;101171.81;;;5.63;48.59
45323;BME280;31382;50.200;8.674;2023-04-04T22:29:44;101171.31;;;5.58;48.15
45323;BME280;31382;50.200;8.674;2023-04-04T22:34:46;101171.81;;;5.63;48.12
45323;BME280;31382;50.200;8.674;2023-04-04T22:39:49;101158.09;;;5.68;47.97
45323;BME280;31382;50.200;8.674;2023-04-04T22:44:51;101157.25;;;5.67;48.62
45323;BME280;31382;50.200;8.674;2023-04-04T22:49:52;101151.09;;;5.67;48.91
45323;BME280;31382;50.200;8.674;2023-04-04T22:54:53;101159.56;;;5.61;49.16
45323;BME280;31382;50.200;8.674;2023-04-04T22:59:55;101155.81;;;5.63;49.16
45323;BME280;31382;50.200;8.674;2023-04-04T23:04:56;101147.09;;;5.61;49.67
45323;BME280;31382;50.200;8.674;2023-04-04T23:09:59;101147.31;;;5.47;49.83
45323;BME280;31382;50.200;8.674;2023-04-04T23:15:00;101150.16;;;5.45;49.72
45323;BME280;31382;50.200;8.674;2023-04-04T23:20:03;101149.16;;;5.35;49.95
45323;BME280;31382;50.200;8.674;2023-04-04T23:25:08;101140.19;;;5.25;50.54
45323;BME280;31382;50.200;8.674;2023-04-04T23:30:09;101134.75;;;5.26;50.05
45323;BME280;31382;50.200;8.674;2023-04-04T23:35:11;101139.97;;;5.28;49.62
45323;BME280;31382;50.200;8.674;2023-04-04T23:40:12;101131.84;;;5.29;50.24
45323;BME280;31382;50.200;8.674;2023-04-04T23:45:14;101135.47;;;5.17;50.31
45323;BME280;31382;50.200;8.674;2023-04-04T23:50:16;101127.75;;;5.14;50.39
45323;BME280;31382;50.200;8.674;2023-04-04T23:55:19;101120.69;;;5.13;50.06
